Time;durP1;ratioP1;P1;durP2;ratioP2;P2;SDS_P1;SDS_P2;PMS_P1;PMS_P2;Temp;Humidity;BMP_temperature;BMP_pressure;BME280_temperature;BME280_humidity;BME280_pressure;Samples;Min_cycle;Max_cycle;Signal;HPM_P1;HPM_P2
2022/03/23 00:01:31;;;;;;;15.70;14.07;;;10.10;52.80;;;;;;5016427;28;20185;-86
2022/03/23 00:03:56;;;;;;;15.60;13.95;;;10.10;52.90;;;;;;5007847;28;20213;-86
2022/03/23 00:06:22;;;;;;;15.63;13.97;;;10.10;52.70;;;;;;4998013;28;20274;-86
2022/03/23 00:08:49;;;;;;;16.03;14.33;;;10.00;53.10;;;;;;5001707;28;20850;-86
2022/03/23 00:11:15;;;;;;;16.07;13.23;;;10.00;53.20;;;;;;4980749;28;20183;-86
2022/03/23 00:13:40;;;;;;;15.27;13.77;;;10.00;53.50;;;;;;4997602;28;20206;-85
2022/03/23 00:16:07;;;;;;;15.77;13.23;;;9.90;53.40;;;;;;4997510;28;20190;-85
2022/03/23 00:18:32;;;;;;;15.77;14.17;;;9.90;53.70;;;;;;5013715;28;20189;-86
2022/03/23 00:20:58;;;;;;;17.37;13.20;;;9.80;53.60;;;;;;5018909;28;20182;-86
2022/03/23 00:23:24;;;;;;;16.40;14.73;;;9.80;53.90;;;;;;5001140;28;20218;-87
2022/03/23 00:25:49;;;;;;;17.03;15.23;;;9.70;53.60;;;;;;5011690;28;20286;-86
2022/03/23 00:28:15;;;;;;;16.53;14.97;;;9.60;53.80;;;;;;4989954;28;20190;-86
2022/03/23 00:30:41;;;;;;;15.87;13.70;;;9.30;54.40;;;;;;5017396;28;20596;-86
2022/03/23 00:33:07;;;;;;;15.83;14.03;;;9.10;55.80;;;;;;5016987;28;20228;-85
2022/03/23 00:35:33;;;;;;;15.43;13.80;;;9.10;55.90;;;;;;5008069;28;20228;-86
2022/03/23 00:37:59;;;;;;;15.10;13.60;;;9.10;55.50;;;;;;4979913;28;20209;-87
2022/03/23 00:40:28;;;;;;;16.07;14.40;;;9.20;55.50;;;;;;4998848;28;20195;-86
2022/03/23 00:42:54;;;;;;;14.83;13.50;;;9.20;55.40;;;;;;4999916;28;20198;-86
2022/03/23 00:45:20;;;;;;;16.67;14.30;;;9.20;55.40;;;;;;4997081;28;20218;-86
2022/03/23 00:47:48;;;;;;;15.93;14.27;;;9.10;55.70;;;;;;4996336;28;20178;-85
2022/03/23 00:50:14;;;;;;;15.63;13.77;;;9.10;55.90;;;;;;4996352;28;20264;-86
2022/03/23 00:52:41;;;;;;;15.37;13.80;;;9.10;55.60;;;;;;5002817;28;20205;-85
2022/03/23 00:55:09;;;;;;;15.83;14.20;;;9.10;55.20;;;;;;5000028;28;20194;-86
2022/03/23 00:57:36;;;;;;;15.53;13.97;;;9.00;55.60;;;;;;5015034;28;20315;-86
2022/03/23 01:00:06;;;;;;;16.83;14.73;;;8.90;56.10;;;;;;5006471;28;20673;-85
2022/03/23 01:02:34;;;;;;;15.33;13.83;;;8.70;56.00;;;;;;5011443;28;20206;-86
2022/03/23 01:05:00;;;;;;;15.93;13.80;;;8.70;57.20;;;;;;4998798;28;20213;-85
2022/03/23 01:07:26;;;;;;;15.67;14.20;;;8.70;57.30;;;;;;5007716;28;20190;-85
2022/03/23 01:09:51;;;;;;;17.00;12.90;;;8.80;56.80;;;;;;4982101;28;20325;-85
2022/03/23 01:12:17;;;;;;;16.27;14.43;;;8.60;57.10;;;;;;5006103;28;20221;-85
2022/03/23 01:14:43;;;;;;;16.13;13.33;;;8.60;57.20;;;;;;5006148;28;20210;-85
2022/03/23 01:17:09;;;;;;;16.07;14.47;;;8.70;57.20;;;;;;4999300;28;20187;-86
2022/03/23 01:19:34;;;;;;;16.13;14.43;;;8.70;56.90;;;;;;4985887;28;20196;-85
2022/03/23 01:22:00;;;;;;;14.93;13.43;;;8.70;57.20;;;;;;4996113;28;20214;-85
2022/03/23 01:24:26;;;;;;;16.03;14.17;;;8.70;56.90;;;;;;5012926;28;20248;-86
2022/03/23 01:26:51;;;;;;;15.43;13.93;;;8.70;57.00;;;;;;4997593;28;20185;-86
2022/03/23 01:29:17;;;;;;;14.97;13.20;;;8.70;57.20;;;;;;5015478;28;20295;-86
2022/03/23 01:31:43;;;;;;;14.70;13.23;;;8.60;57.00;;;;;;4997436;28;20174;-85
2022/03/23 01:34:08;;;;;;;14.77;13.13;;;8.60;57.20;;;;;;5008656;28;20245;-86
2022/03/23 01:36:34;;;;;;;17.60;14.10;;;8.60;57.20;;;;;;4976975;28;20762;-86
2022/03/23 01:39:00;;;;;;;15.53;14.03;;;8.50;57.30;;;;;;4995566;28;20184;-86
2022/03/23 01:41:26;;;;;;;15.23;13.73;;;8.60;57.20;;;;;;4992817;28;20182;-85
2022/03/23 01:43:52;;;;;;;16.00;14.30;;;8.50;57.60;;;;;;5010682;28;20531;-86
2022/03/23 01:46:20;;;;;;;16.37;13.97;;;8.50;57.60;;;;;;5007228;28;20224;-85
2022/03/23 01:48:47;;;;;;;15.90;13.10;;;8.30;57.90;;;;;;5008122;28;20231;-86
2022/03/23 01:51:14;;;;;;;15.73;14.13;;;8.20;58.90;;;;;;4990925;28;20177;-86
2022/03/23 01:53:40;;;;;;;15.70;13.37;;;8.20;58.60;;;;;;5014673;28;20210;-86
2022/03/23 01:56:09;;;;;;;14.17;12.67;;;7.90;59.40;;;;;;5003947;28;20186;-85
2022/03/23 01:58:36;;;;;;;15.63;13.13;;;7.70;59.70;;;;;;5004486;28;20170;-85
2022/03/23 02:01:02;;;;;;;14.83;13.10;;;7.80;60.30;;;;;;5002115;28;20266;-85
2022/03/23 02:03:28;;;;;;;15.67;13.37;;;7.80;60.10;;;;;;5004041;28;20237;-85
2022/03/23 02:05:54;;;;;;;16.40;13.23;;;7.90;59.60;;;;;;5012517;28;20641;-85
2022/03/23 02:08:19;;;;;;;15.57;13.03;;;7.80;60.10;;;;;;5002420;28;20560;-85
2022/03/23 02:10:45;;;;;;;17.73;14.47;;;7.90;59.80;;;;;;5013532;28;20169;-86
2022/03/23 02:13:11;;;;;;;14.63;13.27;;;8.00;59.30;;;;;;4987609;28;20197;-85
2022/03/23 02:15:38;;;;;;;15.73;12.67;;;8.00;59.40;;;;;;5011705;28;20186;-86
2022/03/23 02:18:04;;;;;;;15.57;13.10;;;7.90;59.40;;;;;;4989339;28;20182;-85
2022/03/23 02:20:30;;;;;;;16.87;13.33;;;8.00;59.00;;;;;;4998767;28;20185;-86
2022/03/23 02:22:56;;;;;;;14.83;13.20;;;8.00;59.10;;;;;;5011065;28;20222;-85
2022/03/23 02:25:27;;;;;;;15.73;12.40;;;7.90;58.90;;;;;;4999299;28;20284;-86
2022/03/23 02:27:55;;;;;;;17.30;14.17;;;7.90;59.10;;;;;;5001209;28;20182;-86
2022/03/23 02:30:21;;;;;;;14.73;13.27;;;7.90;58.80;;;;;;5003981;28;20186;-86
2022/03/23 02:32:48;;;;;;;14.43;13.03;;;7.80;59.10;;;;;;5004849;28;20292;-85
2022/03/23 02:35:15;;;;;;;13.47;12.13;;;7.80;59.50;;;;;;5012946;28;20190;-85
2022/03/23 02:37:41;;;;;;;14.13;12.63;;;7.70;59.90;;;;;;5018365;28;20178;-86
2022/03/23 02:40:09;;;;;;;15.47;12.93;;;7.70;59.90;;;;;;5016342;28;20196;-86
2022/03/23 02:42:38;;;;;;;14.07;12.53;;;7.70;60.10;;;;;;4998251;28;20218;-86
2022/03/23 02:45:06;;;;;;;14.27;12.13;;;7.70;60.20;;;;;;4998584;28;20206;-85
2022/03/23 02:47:32;;;;;;;14.43;12.23;;;7.70;60.00;;;;;;5008431;28;20174;-86
2022/03/23 02:49:58;;;;;;;14.10;11.93;;;7.60;59.80;;;;;;5011938;28;20229;-86
2022/03/23 02:52:24;;;;;;;14.53;12.57;;;7.50;60.50;;;;;;4997805;28;20172;-86
2022/03/23 03:03:30;;;;;;;14.43;12.93;;;7.40;60.30;;;;;;5001141;28;20221;-86
2022/03/23 03:05:56;;;;;;;14.53;12.80;;;7.50;60.30;;;;;;5008508;28;20197;-84
2022/03/23 03:11:06;;;;;;;14.63;12.40;;;7.50;60.30;;;;;;5001261;28;20213;-85
2022/03/23 03:13:32;;;;;;;13.90;11.83;;;7.30;60.50;;;;;;4998561;28;20584;-85
2022/03/23 03:16:02;;;;;;;14.27;12.70;;;7.30;61.00;;;;;;4988660;28;20262;-85
2022/03/23 03:18:32;;;;;;;13.20;11.90;;;7.20;60.70;;;;;;5013857;28;20217;-86
2022/03/23 03:21:06;;;;;;;14.17;12.67;;;7.20;61.10;;;;;;5017981;28;20186;-86
2022/03/23 03:23:33;;;;;;;13.37;11.97;;;7.20;61.30;;;;;;5014070;28;20230;-85
2022/03/23 03:26:01;;;;;;;14.47;12.03;;;7.20;60.80;;;;;;5009681;28;20317;-85
2022/03/23 03:28:27;;;;;;;14.00;12.50;;;7.20;60.40;;;;;;5000841;28;20730;-86
2022/03/23 03:30:53;;;;;;;17.27;12.20;;;7.30;61.10;;;;;;4964733;28;20206;-85
2022/03/23 03:36:41;;;;;;;12.13;10.93;;;7.30;60.90;;;;;;5001890;28;20225;-85
2022/03/23 03:39:07;;;;;;;14.20;12.63;;;7.20;61.10;;;;;;5008831;28;20210;-86
2022/03/23 03:41:33;;;;;;;16.80;12.73;;;7.20;61.30;;;;;;5005952;28;20194;-86
2022/03/23 03:43:59;;;;;;;12.90;11.57;;;7.20;61.30;;;;;;5006823;28;20353;-86
2022/03/23 03:46:24;;;;;;;14.10;12.70;;;7.20;60.90;;;;;;5010402;28;20284;-85
2022/03/23 03:48:50;;;;;;;15.40;12.73;;;7.20;61.20;;;;;;5008772;28;20190;-86
2022/03/23 03:51:16;;;;;;;14.80;11.87;;;7.10;61.40;;;;;;5011468;28;20178;-86
2022/03/23 03:53:42;;;;;;;13.50;12.10;;;7.20;61.00;;;;;;5004505;28;20788;-85
2022/03/23 03:56:09;;;;;;;14.07;12.57;;;7.20;60.90;;;;;;5007288;28;20186;-85
2022/03/23 03:58:35;;;;;;;14.20;11.83;;;7.10;61.40;;;;;;5002850;28;20381;-85
2022/03/23 04:01:00;;;;;;;14.13;11.63;;;7.10;61.30;;;;;;5006379;28;20178;-86
2022/03/23 04:03:26;;;;;;;13.23;11.93;;;7.00;61.20;;;;;;5006686;28;20221;-85
2022/03/23 04:05:52;;;;;;;13.33;11.63;;;7.00;62.60;;;;;;5011882;28;20205;-86
2022/03/23 04:08:17;;;;;;;13.53;12.00;;;6.90;62.00;;;;;;5006251;28;20260;-85
2022/03/23 04:10:43;;;;;;;13.57;12.17;;;7.00;61.50;;;;;;5009576;28;20200;-84
2022/03/23 04:13:09;;;;;;;14.30;12.80;;;6.90;62.20;;;;;;5009848;28;20217;-85
2022/03/23 04:15:36;;;;;;;14.73;13.20;;;6.80;62.10;;;;;;5006026;28;20190;-85
2022/03/23 04:18:02;;;;;;;14.30;11.43;;;6.70;62.60;;;;;;4994243;28;20204;-87
2022/03/23 04:20:29;;;;;;;13.43;12.13;;;6.70;62.70;;;;;;5004978;28;20241;-85
2022/03/23 04:22:55;;;;;;;14.10;12.77;;;6.60;62.80;;;;;;5002273;28;20214;-85
2022/03/23 04:25:21;;;;;;;13.60;12.27;;;6.30;63.30;;;;;;4992399;28;20209;-85
2022/03/23 04:27:48;;;;;;;15.00;12.63;;;6.30;64.10;;;;;;5007897;28;20245;-85
2022/03/23 04:30:17;;;;;;;15.80;12.93;;;6.30;64.00;;;;;;5008055;28;20209;-85
2022/03/23 04:32:46;;;;;;;13.97;12.57;;;6.40;63.90;;;;;;5003990;28;20731;-86
2022/03/23 04:35:13;;;;;;;13.20;11.90;;;6.40;63.60;;;;;;5003770;28;20610;-86
2022/03/23 04:37:39;;;;;;;18.57;14.03;;;6.40;63.80;;;;;;4983989;28;20218;-86
2022/03/23 04:40:06;;;;;;;14.37;12.87;;;6.50;63.20;;;;;;5005450;28;20226;-85
2022/03/23 04:42:32;;;;;;;14.07;12.57;;;6.50;63.70;;;;;;5010629;28;20186;-86
2022/03/23 04:44:58;;;;;;;13.83;12.43;;;6.50;63.60;;;;;;5001597;28;20202;-85
2022/03/23 04:47:23;;;;;;;15.10;12.17;;;6.50;63.40;;;;;;5013497;28;20182;-85
2022/03/23 04:49:49;;;;;;;14.43;12.93;;;6.40;63.70;;;;;;5011277;28;20200;-85
2022/03/23 04:52:16;;;;;;;14.80;12.03;;;6.40;63.90;;;;;;4986520;28;20552;-86
2022/03/23 04:54:45;;;;;;;16.53;12.97;;;6.40;64.00;;;;;;5010503;28;20699;-87
2022/03/23 04:57:11;;;;;;;13.97;12.57;;;6.40;63.90;;;;;;5004047;28;20190;-85
2022/03/23 04:59:36;;;;;;;13.97;12.50;;;6.40;63.70;;;;;;5007939;28;20196;-85
2022/03/23 05:02:02;;;;;;;15.50;12.17;;;6.40;64.20;;;;;;5011011;28;20194;-85
2022/03/23 05:04:28;;;;;;;20.03;13.00;;;6.30;64.50;;;;;;5009689;28;20708;-85
2022/03/23 05:06:54;;;;;;;16.07;12.57;;;6.30;64.60;;;;;;4995357;28;20248;-85
2022/03/23 05:09:19;;;;;;;13.47;12.20;;;6.20;64.50;;;;;;5007890;28;20187;-85
2022/03/23 05:11:45;;;;;;;19.70;12.73;;;6.20;64.40;;;;;;4981500;28;20214;-85
2022/03/23 05:14:10;;;;;;;14.60;12.50;;;6.30;64.10;;;;;;5005130;28;20657;-85
2022/03/23 05:16:37;;;;;;;13.27;11.93;;;6.30;64.60;;;;;;5002088;28;20189;-86
2022/03/23 05:19:03;;;;;;;14.60;12.33;;;6.30;64.20;;;;;;5003174;28;20181;-86
2022/03/23 05:21:29;;;;;;;13.97;11.53;;;6.30;64.40;;;;;;4999797;28;20190;-85
2022/03/23 05:23:55;;;;;;;13.03;11.63;;;6.30;64.20;;;;;;4983391;28;20221;-86
2022/03/23 05:26:21;;;;;;;13.27;11.73;;;6.30;64.00;;;;;;5010257;28;20285;-86
2022/03/23 05:28:46;;;;;;;13.53;12.13;;;6.20;64.10;;;;;;5005460;28;20190;-86
2022/03/23 05:31:12;;;;;;;21.73;14.03;;;6.30;64.30;;;;;;4984093;28;20186;-86
2022/03/23 05:33:38;;;;;;;14.07;12.67;;;6.30;64.00;;;;;;5004853;28;20191;-85
2022/03/23 05:36:04;;;;;;;13.67;12.13;;;6.30;64.60;;;;;;4997817;28;20194;-85
2022/03/23 05:38:29;;;;;;;14.43;12.77;;;6.20;64.30;;;;;;5007150;28;20193;-85
2022/03/23 05:40:55;;;;;;;17.30;13.20;;;6.20;64.90;;;;;;5024614;28;20178;-84
2022/03/23 05:43:21;;;;;;;14.27;12.87;;;6.20;64.50;;;;;;5019242;28;20214;-86
2022/03/23 05:45:46;;;;;;;18.10;12.73;;;6.20;64.60;;;;;;5019662;28;20194;-86
2022/03/23 05:48:12;;;;;;;17.97;12.70;;;6.20;64.70;;;;;;5002930;28;20198;-85
2022/03/23 05:50:38;;;;;;;14.20;12.47;;;6.10;64.70;;;;;;5004667;28;20192;-86
2022/03/23 05:53:04;;;;;;;17.07;12.40;;;6.10;65.00;;;;;;5009422;28;20202;-86
2022/03/23 05:55:30;;;;;;;16.50;13.87;;;6.10;65.30;;;;;;5015357;28;20189;-86
2022/03/23 05:57:57;;;;;;;15.67;13.93;;;6.00;64.70;;;;;;5017052;28;20290;-85
2022/03/23 06:00:22;;;;;;;18.60;12.57;;;6.10;65.00;;;;;;5010578;28;20565;-86
2022/03/23 06:02:49;;;;;;;19.23;13.93;;;6.10;65.00;;;;;;5006456;28;20673;-86
2022/03/23 06:05:14;;;;;;;24.20;15.00;;;6.10;65.00;;;;;;5004412;28;20257;-86
2022/03/23 06:07:40;;;;;;;21.77;14.13;;;6.20;65.00;;;;;;4993353;28;20209;-86
2022/03/23 06:10:09;;;;;;;25.17;16.73;;;6.10;65.00;;;;;;5000040;28;20197;-86
2022/03/23 06:12:37;;;;;;;24.57;14.70;;;6.10;65.20;;;;;;5013808;28;20192;-85
2022/03/23 06:15:05;;;;;;;16.10;14.13;;;6.20;65.50;;;;;;5021712;28;20280;-87
2022/03/23 06:17:31;;;;;;;21.30;14.20;;;6.10;65.40;;;;;;5013228;28;20507;-86
2022/03/23 06:19:57;;;;;;;19.30;13.97;;;6.20;65.90;;;;;;5000603;28;20300;-85
2022/03/23 06:22:22;;;;;;;19.53;14.07;;;6.30;65.80;;;;;;5021047;28;20196;-86
2022/03/23 06:24:48;;;;;;;16.17;14.00;;;6.30;65.50;;;;;;5005623;28;20214;-86
2022/03/23 06:27:14;;;;;;;16.03;12.90;;;6.30;65.90;;;;;;5012307;28;20188;-86
2022/03/23 06:29:40;;;;;;;14.97;13.23;;;6.30;65.90;;;;;;4988271;28;20185;-86
2022/03/23 06:32:06;;;;;;;18.37;12.97;;;6.30;65.80;;;;;;4997729;28;20178;-87
2022/03/23 06:34:31;;;;;;;16.33;13.13;;;6.30;65.70;;;;;;5007001;28;20236;-85
2022/03/23 06:36:58;;;;;;;19.53;13.97;;;6.40;66.00;;;;;;4999639;28;20244;-86
2022/03/23 06:39:23;;;;;;;15.43;12.93;;;6.40;65.90;;;;;;5016675;28;20198;-84
2022/03/23 06:41:49;;;;;;;14.80;13.17;;;6.30;66.20;;;;;;5002132;28;20277;-85
2022/03/23 06:44:16;;;;;;;14.80;12.77;;;6.40;66.10;;;;;;5007882;28;20689;-85
2022/03/23 06:46:42;;;;;;;19.77;13.67;;;6.50;66.10;;;;;;5014528;28;20189;-85
2022/03/23 06:49:07;;;;;;;17.73;13.83;;;6.60;66.00;;;;;;4991928;28;20225;-85
2022/03/23 06:51:33;;;;;;;15.07;12.93;;;6.60;66.00;;;;;;4990396;28;20198;-85
2022/03/23 06:53:59;;;;;;;18.73;13.87;;;6.70;66.00;;;;;;5016948;28;20225;-85
2022/03/23 06:56:24;;;;;;;18.20;13.43;;;6.70;65.80;;;;;;5009724;28;20549;-85
2022/03/23 06:58:50;;;;;;;16.83;13.90;;;6.80;66.10;;;;;;5009047;28;20281;-85
2022/03/23 07:01:16;;;;;;;15.07;13.57;;;6.90;65.90;;;;;;4999559;28;20198;-85
2022/03/23 07:03:41;;;;;;;15.03;13.33;;;6.90;66.10;;;;;;5014609;28;20225;-85
2022/03/23 07:06:07;;;;;;;16.37;12.43;;;7.00;66.30;;;;;;4998580;28;20226;-85
2022/03/23 07:11:17;;;;;;;15.93;13.87;;;7.00;65.50;;;;;;5018840;28;20454;-85
2022/03/23 07:13:42;;;;;;;16.30;13.67;;;7.10;65.20;;;;;;5000736;28;20203;-85
2022/03/23 07:16:08;;;;;;;14.33;12.93;;;7.20;64.90;;;;;;4998833;28;20209;-85
2022/03/23 07:18:34;;;;;;;22.77;14.77;;;7.30;64.70;;;;;;5018343;28;20197;-85
2022/03/23 07:21:02;;;;;;;16.30;14.70;;;7.40;64.40;;;;;;5015545;28;20190;-85
2022/03/23 07:23:28;;;;;;;15.03;13.63;;;7.50;63.90;;;;;;5013698;28;20229;-85
2022/03/23 07:25:53;;;;;;;15.37;13.73;;;7.50;63.10;;;;;;5010189;28;20256;-85
2022/03/23 07:28:19;;;;;;;15.90;14.40;;;7.60;63.20;;;;;;5014934;28;20180;-85
2022/03/23 07:30:45;;;;;;;16.80;15.00;;;7.60;62.50;;;;;;5021987;28;20185;-84
2022/03/23 07:33:11;;;;;;;17.33;15.50;;;7.70;62.20;;;;;;5017073;28;20264;-85
2022/03/23 07:35:37;;;;;;;18.63;15.07;;;7.70;62.60;;;;;;5026788;28;20212;-84
2022/03/23 07:38:03;;;;;;;17.33;14.77;;;7.60;63.10;;;;;;5011576;28;20194;-85
2022/03/23 07:40:28;;;;;;;16.07;14.40;;;7.60;62.80;;;;;;5013516;28;20198;-85
2022/03/23 07:42:54;;;;;;;17.27;15.30;;;7.70;62.80;;;;;;4978175;28;20229;-84
2022/03/23 07:45:20;;;;;;;19.33;15.53;;;7.80;63.00;;;;;;4995891;28;20689;-85
2022/03/23 07:47:46;;;;;;;16.47;14.90;;;7.80;63.60;;;;;;5017424;28;20183;-85
2022/03/23 07:50:12;;;;;;;18.23;16.37;;;7.80;63.90;;;;;;5013425;28;20195;-85
2022/03/23 07:52:37;;;;;;;18.60;15.37;;;8.00;64.40;;;;;;5015721;28;20210;-85
2022/03/23 07:55:03;;;;;;;18.23;15.93;;;7.80;64.20;;;;;;4998316;28;20199;-86
2022/03/23 07:57:29;;;;;;;18.50;15.43;;;7.80;64.20;;;;;;5017985;28;20285;-84
2022/03/23 07:59:55;;;;;;;18.07;15.40;;;7.80;64.70;;;;;;5021735;28;20193;-84
2022/03/23 08:02:26;;;;;;;19.50;15.43;;;7.80;65.20;;;;;;5001630;28;20194;-85
2022/03/23 08:04:52;;;;;;;19.67;16.53;;;7.80;64.40;;;;;;4998078;28;20441;-85
2022/03/23 08:07:18;;;;;;;17.20;15.20;;;7.80;65.60;;;;;;5010029;28;20194;-84
2022/03/23 08:09:45;;;;;;;22.27;15.77;;;7.80;65.20;;;;;;5010895;28;20193;-84
2022/03/23 08:12:11;;;;;;;18.00;16.13;;;7.50;64.90;;;;;;5011701;28;20185;-85
2022/03/23 08:14:37;;;;;;;19.57;15.33;;;7.50;66.00;;;;;;5013849;28;20233;-85
2022/03/23 08:17:03;;;;;;;24.40;17.90;;;7.60;66.10;;;;;;5014914;28;20204;-85
2022/03/23 08:19:29;;;;;;;22.50;16.53;;;7.50;65.00;;;;;;4995595;28;20201;-85
2022/03/23 08:21:55;;;;;;;23.20;16.47;;;7.40;66.20;;;;;;5012545;28;20252;-85
2022/03/23 08:24:21;;;;;;;20.53;16.90;;;7.60;66.30;;;;;;4999766;28;20224;-85
2022/03/23 08:26:47;;;;;;;20.33;18.23;;;7.70;63.80;;;;;;5000680;28;20213;-85
2022/03/23 08:29:13;;;;;;;19.67;17.47;;;7.70;64.80;;;;;;5020582;28;20638;-85
2022/03/23 08:31:40;;;;;;;22.00;18.13;;;8.10;63.10;;;;;;5014454;28;20190;-85
2022/03/23 08:34:06;;;;;;;21.67;18.53;;;8.10;63.40;;;;;;4992668;28;20214;-85
2022/03/23 08:36:32;;;;;;;23.07;17.97;;;8.10;64.60;;;;;;5014603;28;20193;-85
2022/03/23 08:38:58;;;;;;;19.93;17.67;;;8.10;64.60;;;;;;5009098;28;20182;-85
2022/03/23 08:41:24;;;;;;;24.90;17.83;;;8.20;63.30;;;;;;4999645;28;20189;-84
2022/03/23 08:43:50;;;;;;;20.80;17.90;;;8.60;62.20;;;;;;5009686;28;20221;-85
2022/03/23 08:46:15;;;;;;;23.87;16.90;;;8.80;62.20;;;;;;5012828;28;20197;-85
2022/03/23 08:48:41;;;;;;;21.40;18.50;;;8.70;62.00;;;;;;5006593;28;20286;-85
2022/03/23 08:51:07;;;;;;;19.67;17.63;;;8.80;62.20;;;;;;5005618;28;20225;-85
2022/03/23 08:53:33;;;;;;;20.97;18.17;;;8.80;61.40;;;;;;4991324;28;20229;-85
2022/03/23 08:55:59;;;;;;;22.17;18.30;;;9.10;61.50;;;;;;5013913;28;20269;-84
2022/03/23 08:58:26;;;;;;;21.10;17.97;;;9.40;60.50;;;;;;5003722;28;20233;-84
2022/03/23 09:00:52;;;;;;;19.00;17.20;;;9.60;59.30;;;;;;5006658;28;20182;-85
2022/03/23 09:03:17;;;;;;;20.70;18.47;;;9.80;58.50;;;;;;5010785;28;20210;-85
2022/03/23 09:05:43;;;;;;;21.87;18.87;;;10.10;58.20;;;;;;5018241;28;20724;-85
2022/03/23 09:08:09;;;;;;;24.00;18.20;;;10.00;58.50;;;;;;5007692;28;20221;-85
2022/03/23 09:10:35;;;;;;;24.20;19.37;;;10.20;58.10;;;;;;5016725;28;20236;-85
2022/03/23 09:13:01;;;;;;;21.50;19.30;;;10.60;56.50;;;;;;5012939;28;20217;-85
2022/03/23 09:15:27;;;;;;;22.20;19.13;;;10.60;56.40;;;;;;4985785;28;20268;-85
2022/03/23 09:17:59;;;;;;;22.93;20.43;;;10.70;57.20;;;;;;4986620;28;20201;-85
2022/03/23 09:20:28;;;;;;;23.57;19.37;;;11.10;55.80;;;;;;5010095;28;20603;-85
2022/03/23 09:22:54;;;;;;;20.57;18.53;;;11.10;56.10;;;;;;5003761;28;20236;-85
2022/03/23 09:25:22;;;;;;;21.73;19.27;;;11.40;53.70;;;;;;5018544;28;20217;-84
2022/03/23 09:27:48;;;;;;;23.53;20.27;;;11.60;53.00;;;;;;5013716;28;20194;-85
2022/03/23 09:30:16;;;;;;;22.43;20.10;;;11.80;53.10;;;;;;5018185;28;20561;-85
2022/03/23 09:32:43;;;;;;;21.80;19.60;;;12.00;51.80;;;;;;5005955;28;20220;-85
2022/03/23 09:35:09;;;;;;;21.70;19.57;;;12.10;51.40;;;;;;5005164;28;20188;-85
2022/03/23 09:37:48;;;;;;;24.10;21.47;;;12.20;51.20;;;;;;5017086;28;20268;-86
2022/03/23 09:40:17;;;;;;;23.87;21.53;;;12.30;50.70;;;;;;5002474;28;20188;-85
2022/03/23 09:42:46;;;;;;;24.87;22.07;;;12.50;50.20;;;;;;5008929;28;20251;-85
2022/03/23 09:45:28;;;;;;;23.77;21.23;;;12.60;49.40;;;;;;5009403;28;20205;-85
2022/03/23 09:47:54;;;;;;;24.40;21.77;;;12.70;49.60;;;;;;5009847;28;20195;-85
2022/03/23 09:50:19;;;;;;;25.40;22.77;;;12.80;50.30;;;;;;5006040;28;20548;-84
2022/03/23 09:52:45;;;;;;;25.13;22.63;;;13.00;49.20;;;;;;5007417;28;20265;-85
2022/03/23 09:55:11;;;;;;;25.10;22.40;;;13.00;49.30;;;;;;5004951;28;20194;-86
2022/03/23 09:57:37;;;;;;;24.73;22.23;;;13.40;48.80;;;;;;5006746;28;20454;-85
2022/03/23 10:00:08;;;;;;;25.27;22.80;;;13.50;47.70;;;;;;5001263;28;20191;-85
2022/03/23 10:02:57;;;;;;;25.40;21.80;;;13.80;47.70;;;;;;5015984;28;20265;-85
2022/03/23 10:05:32;;;;;;;26.90;23.83;;;14.10;45.10;;;;;;4978023;28;20225;-85
2022/03/23 10:08:25;;;;;;;26.60;23.93;;;14.20;44.40;;;;;;5005384;28;20245;-86
2022/03/23 10:11:12;;;;;;;26.93;24.03;;;14.50;43.90;;;;;;5012506;28;20198;-85
2022/03/23 10:14:12;;;;;;;25.90;23.47;;;14.70;42.90;;;;;;5009174;28;20276;-85
2022/03/23 10:16:55;;;;;;;25.43;22.80;;;14.90;42.00;;;;;;5013216;28;20192;-85
2022/03/23 10:19:21;;;;;;;27.17;24.37;;;15.00;42.70;;;;;;5017891;28;20180;-85
2022/03/23 10:21:47;;;;;;;27.13;24.27;;;15.10;41.80;;;;;;5014612;28;20943;-85
2022/03/23 10:24:15;;;;;;;26.93;24.13;;;15.10;41.90;;;;;;5015746;28;20253;-85
2022/03/23 10:26:41;;;;;;;28.20;24.70;;;15.30;40.20;;;;;;4984879;28;20227;-86
2022/03/23 10:29:22;;;;;;;26.47;23.60;;;15.50;38.90;;;;;;5010016;28;20192;-85
2022/03/23 10:32:03;;;;;;;27.53;24.50;;;15.70;38.10;;;;;;5009885;28;20448;-85
2022/03/23 10:34:50;;;;;;;28.60;25.67;;;15.70;37.50;;;;;;5015483;28;20292;-85
2022/03/23 10:37:32;;;;;;;26.67;23.87;;;15.70;37.60;;;;;;4993593;28;20190;-85
2022/03/23 10:40:07;;;;;;;28.87;25.33;;;15.90;36.50;;;;;;5016312;28;20240;-85
2022/03/23 10:42:35;;;;;;;25.87;23.27;;;16.10;36.10;;;;;;5010949;28;20190;-86
2022/03/23 10:45:18;;;;;;;27.53;24.70;;;16.30;36.70;;;;;;4999396;28;20209;-84
2022/03/23 10:47:45;;;;;;;28.23;25.33;;;16.40;35.70;;;;;;5019989;28;20221;-85
2022/03/23 10:50:26;;;;;;;27.10;24.27;;;16.20;36.40;;;;;;5010690;28;20187;-86
2022/03/23 10:52:57;;;;;;;27.30;24.63;;;16.50;35.90;;;;;;5002413;28;20568;-84
2022/03/23 10:55:26;;;;;;;26.83;23.93;;;16.60;35.90;;;;;;5016606;28;20193;-85
2022/03/23 11:01:15;;;;;;;26.60;23.90;;;17.40;34.10;;;;;;5020835;28;20554;-85
2022/03/23 11:06:27;;;;;;;26.67;23.93;;;17.60;34.00;;;;;;5400737;23;20252;-88
2022/03/23 11:08:53;;;;;;;28.63;23.07;;;17.90;34.10;;;;;;5020978;28;20183;-87
2022/03/23 11:16:37;;;;;;;23.67;21.23;;;18.50;33.20;;;;;;5016835;28;20264;-88
2022/03/23 11:19:12;;;;;;;22.05;19.90;;;18.90;30.10;;;;;;5002325;28;20192;-88
2022/03/23 11:22:01;;;;;;;23.40;21.20;;;19.10;29.90;;;;;;5009804;28;20249;-88
2022/03/23 11:24:49;;;;;;;21.95;19.75;;;19.40;29.80;;;;;;5011130;28;20217;-88
2022/03/23 11:27:18;;;;;;;22.15;19.92;;;19.80;29.70;;;;;;5008113;28;20189;-88
2022/03/23 11:29:48;;;;;;;23.48;21.17;;;20.00;28.80;;;;;;5009948;28;20186;-88
2022/03/23 11:32:16;;;;;;;23.67;21.30;;;19.80;27.30;;;;;;5002008;28;20186;-88
2022/03/23 11:34:49;;;;;;;23.15;21.05;;;20.10;26.70;;;;;;4985349;28;20273;-88
2022/03/23 11:37:16;;;;;;;21.40;19.38;;;20.20;27.00;;;;;;4993192;28;20195;-89
2022/03/23 11:39:43;;;;;;;22.48;20.27;;;20.50;25.80;;;;;;5015193;28;20170;-87
2022/03/23 11:42:12;;;;;;;22.55;19.90;;;20.40;25.20;;;;;;5018635;28;20190;-87
2022/03/23 11:44:40;;;;;;;22.63;20.33;;;20.50;25.30;;;;;;4993053;28;20194;-87
2022/03/23 11:47:28;;;;;;;37.40;21.63;;;20.90;25.50;;;;;;5007670;28;20209;-87
2022/03/23 11:50:12;;;;;;;21.67;19.67;;;21.20;24.70;;;;;;4989815;28;20246;-87
2022/03/23 11:53:02;;;;;;;21.00;19.13;;;21.00;25.30;;;;;;4995168;28;20189;-87
2022/03/23 11:55:37;;;;;;;21.73;19.63;;;20.80;24.60;;;;;;4965452;28;20222;-87
2022/03/23 11:58:23;;;;;;;22.20;19.85;;;20.70;25.20;;;;;;4974807;28;20198;-86
2022/03/23 12:01:05;;;;;;;21.88;19.77;;;21.00;25.20;;;;;;4993803;28;20186;-87
2022/03/23 12:03:51;;;;;;;24.73;21.17;;;20.70;25.50;;;;;;4995271;28;20183;-87
2022/03/23 12:06:20;;;;;;;23.27;20.92;;;20.70;26.00;;;;;;4988496;28;20221;-87
2022/03/23 12:08:47;;;;;;;22.50;20.40;;;20.90;26.20;;;;;;4989357;28;20315;-86
2022/03/23 12:11:35;;;;;;;22.27;20.15;;;21.00;26.20;;;;;;5015924;28;20170;-87
2022/03/23 12:14:03;;;;;;;23.73;21.02;;;21.40;25.30;;;;;;5002646;28;20177;-87
2022/03/23 12:16:50;;;;;;;24.05;21.65;;;21.70;25.80;;;;;;5002402;28;20271;-87
2022/03/23 12:19:27;;;;;;;23.02;20.58;;;21.80;25.60;;;;;;4986184;28;20197;-87
2022/03/23 12:21:55;;;;;;;23.08;19.58;;;22.20;24.80;;;;;;4985353;28;20549;-87
2022/03/23 12:25:03;;;;;;;22.80;20.67;;;22.30;23.90;;;;;;4994839;28;20263;-87
2022/03/23 12:28:06;;;;;;;22.33;20.48;;;22.60;23.80;;;;;;4978325;28;20189;-87
2022/03/23 12:30:39;;;;;;;22.65;20.38;;;22.30;24.30;;;;;;4971796;28;20187;-87
2022/03/23 12:33:12;;;;;;;22.75;20.55;;;22.30;24.50;;;;;;4981114;28;20197;-87
2022/03/23 12:35:39;;;;;;;21.45;19.60;;;22.50;24.50;;;;;;4984073;28;20293;-87
2022/03/23 12:38:18;;;;;;;22.23;20.02;;;22.80;24.00;;;;;;4990481;28;20182;-87
2022/03/23 12:40:45;;;;;;;20.80;18.90;;;23.30;23.30;;;;;;5001409;28;20193;-86
2022/03/23 12:43:38;;;;;;;20.63;18.55;;;23.50;22.90;;;;;;4978197;28;20259;-87
2022/03/23 12:46:16;;;;;;;22.42;20.20;;;23.20;22.80;;;;;;4994200;28;20228;-86
2022/03/23 12:57:50;;;;;;;19.10;17.17;;;23.70;22.60;;;;;;4996192;28;20188;-86
2022/03/23 13:00:32;;;;;;;20.80;18.65;;;23.90;21.70;;;;;;5003111;28;20247;-86
2022/03/23 13:03:08;;;;;;;19.73;18.10;;;23.30;21.90;;;;;;5001279;28;20228;-86
2022/03/23 13:05:58;;;;;;;20.48;18.63;;;23.60;22.40;;;;;;5000006;28;20213;-86
2022/03/23 13:08:33;;;;;;;21.02;19.10;;;23.90;22.20;;;;;;4989894;28;20209;-86
2022/03/23 13:11:23;;;;;;;20.55;18.83;;;24.00;21.90;;;;;;4997045;28;20173;-87
2022/03/23 13:13:54;;;;;;;20.92;18.65;;;24.40;22.30;;;;;;4989757;28;20210;-86
2022/03/23 13:16:23;;;;;;;20.10;18.45;;;23.80;22.50;;;;;;5007991;28;20665;-86
2022/03/23 13:18:49;;;;;;;19.08;17.48;;;23.80;22.30;;;;;;4997872;28;20689;-87